Sunday, November 23, 2014
18:52 UTC
  |  Log In   |  Register Free
Airport Search:

Coleman Municipal Airport
(KCOM)

Coleman Municipal Airport Diagram
No Airport Diagram Available

FAA data valid effective November 13, 2014 - January 08, 2015 (unless otherwise noted).

 
 
 
 
 
 
 
 
 
 
 
 
 
 

Current Aviation Weather for Coleman Municipal Airport (KCOM)

The most recent METAR observation for KCOM was updated at: 1814
METAR Summary (Translated METAR)
KCOM
231755Z AUTO 26015G22KT 10SM CLR 19/06 A2958 RMK AO2 60003 T01930062 10193 20110
KBWD
231755Z AUTO 24017G20KT 10SM CLR 20/05 A2957 RMK AO2
(23 nm SE from KCOM)
KABI
231752Z 26021G30KT 10SM CLR 22/02 A2953 RMK AO2 PK WND 26034/1740 SLP981 T02220017 10222 20100 58020
(37 nm NW from KCOM)
TAF Summary (Translated TAF)
KABI
(37 nm NW from KCOM)
231730Z 2318/2418 28025G36KT P6SM SKC FM232300 32022G32KT P6SM SKC FM240100 33018G25KT P6SM SKC FM240300 32010KT P6SM SKC
  Airport Weather Conditions for KCOM

 Current Weather at COM
66° F
Fair
West winds at 13.8 mph
COM NOAA Radar

Pressure: 29.58 in
Humidity: 45%
Wind: from the West at 13.8 gusting to 24.2 MPH (12 gusting to 21 KT)
Dew Point: 43.5°F
Visibility: 10.00 mi


Airport Weather Forecast for KCOM

Translated METAR and TAF for KCOM
Translated METAR for KCOM (1847 UTC 23 November 2014)
found at http://aviationweather.gov/adds/metars/
 
METAR text: KCOM 231835Z AUTO 26019G26KT 10SM CLR 21/05 A2955 RMK AO2 T02090049
Conditions at: KCOM (COLEMAN MUNI , TX, US) observed 1835 UTC 23 November 2014
Temperature: 20.9°C (70°F)
Dewpoint: 4.9°C (41°F) [RH = 35%]
Pressure (altimeter): 29.55 inches Hg (1000.8 mb)
Winds: from the W (260 degrees) at 22 MPH (19 knots; 9.9 m/s)
gusting to 30 MPH (26 knots; 13.5 m/s)
Visibility: 10 or more miles (16+ km)
Ceiling: at least 12,000 feet AGL
Clouds: sky clear below 12,000 feet AGL
Weather: automated observation with no human augmentation;
there may or may not be significant weather present at this time
Translated TAF for KCOM

There is no translated TAF available for this airport

Find All Airport Services Find A Hotel Find A Rental Car Find A Golf Course Find A Restaurant $100 Hamburger



FBO's on the Field
FBO Company Facility Photos Services Transportation Aviation Fuel Prices: Prices include tax
Catering Weather Repair Courtesy Rental Type 100LL JetA JetA+ MOGAS 8087
 
Add another FBO Facility Photos Catering Weather Repair Courtesy Rental Type 100LL JetA JetA+ MOGAS 8087
Services Transportation Aviation Fuel Prices: Prices include tax
There are no FBO's currently reporting fuel at COM. List your FBO now


model-print
model-print
model-print
model-print